Time;durP1;ratioP1;P1;durP2;ratioP2;P2;SDS_P1;SDS_P2;PMS_P1;PMS_P2;Temp;Humidity;BMP_temperature;BMP_pressure;BME280_temperature;BME280_humidity;BME280_pressure;Samples;Min_cycle;Max_cycle;Signal;HPM_P1;HPM_P2
2021/01/04 00:02:35;;;;;;;24.58;11.75;;;2.80;68.70;;;0.49;74.29;95468.63;4985095;28;20052;-72
2021/01/04 00:05:51;;;;;;;23.27;12.13;;;2.80;69.10;;;0.48;73.58;95461.84;5008078;28;20110;-72
2021/01/04 00:08:44;;;;;;;24.23;12.50;;;2.80;69.60;;;0.49;74.03;95468.63;4958548;28;20038;-72
2021/01/04 00:11:18;;;;;;;23.52;12.55;;;2.80;69.60;;;0.49;74.61;95468.63;4965962;28;20144;-72
2021/01/04 00:13:50;;;;;;;25.30;12.57;;;2.80;69.50;;;0.48;74.88;95472.19;4997489;28;20168;-71
2021/01/04 00:16:38;;;;;;;23.98;11.82;;;2.80;69.90;;;0.50;74.24;95465.09;5008033;28;20045;-71
2021/01/04 00:19:40;;;;;;;22.95;12.82;;;2.80;69.80;;;0.48;74.81;95461.84;5009964;28;20073;-70
2021/01/04 00:22:35;;;;;;;23.15;12.00;;;2.80;69.90;;;0.47;75.27;95465.38;4981900;28;20042;-71
2021/01/04 00:25:31;;;;;;;25.33;12.73;;;2.80;70.20;;;0.47;74.54;95460.22;4998251;28;20061;-71
2021/01/04 00:28:05;;;;;;;22.92;12.43;;;2.80;70.50;;;0.43;75.03;95461.41;5011285;28;20052;-71
2021/01/04 00:30:36;;;;;;;23.23;12.23;;;2.80;70.70;;;0.47;74.62;95467.97;4995224;28;20037;-71
2021/01/04 00:33:22;;;;;;;28.10;12.88;;;2.80;70.20;;;0.45;74.74;95469.84;4994998;28;20033;-71
2021/01/04 00:35:51;;;;;;;23.65;12.55;;;2.80;69.70;;;0.46;75.29;95468.94;4996585;28;20036;-71
2021/01/04 00:38:37;;;;;;;23.05;12.55;;;2.90;69.70;;;0.46;73.95;95468.09;5002124;28;20095;-71
2021/01/04 00:41:22;;;;;;;23.60;13.38;;;2.90;69.50;;;0.46;74.49;95468.09;4995897;28;20029;-71
2021/01/04 00:43:54;;;;;;;22.38;11.98;;;2.80;69.50;;;0.45;74.36;95475.03;5019771;28;20047;-72
2021/01/04 00:46:25;;;;;;;26.75;13.10;;;2.80;69.60;;;0.44;75.21;95457.06;5006748;28;20050;-71
2021/01/04 00:49:12;;;;;;;24.40;12.68;;;2.90;69.70;;;0.44;74.75;95470.81;4974357;28;20046;-71
2021/01/04 00:52:03;;;;;;;23.40;12.15;;;2.80;69.80;;;0.42;74.84;95471.91;5010267;28;20037;-73
2021/01/04 00:55:11;;;;;;;26.63;13.20;;;2.80;69.30;;;0.42;74.11;95477.91;4996763;28;20037;-71
2021/01/04 00:58:14;;;;;;;25.02;13.23;;;2.80;69.40;;;0.36;74.60;95475.06;5005471;28;20096;-71
2021/01/04 01:00:49;;;;;;;25.42;13.63;;;2.80;69.50;;;0.35;74.34;95471.69;5024439;28;20034;-72
2021/01/04 01:03:37;;;;;;;23.23;12.40;;;2.70;69.50;;;0.34;74.99;95480.38;4993836;28;20030;-71
2021/01/04 01:06:03;;;;;;;24.23;13.55;;;2.70;69.70;;;0.38;74.81;95489.50;4996909;28;20506;-71
2021/01/04 01:08:35;;;;;;;28.55;13.20;;;2.80;70.10;;;0.33;75.24;95473.59;5009980;28;20041;-71
2021/01/04 01:11:05;;;;;;;25.15;13.30;;;2.70;70.50;;;0.39;75.38;95493.72;4994492;28;20084;-70
2021/01/04 01:13:55;;;;;;;25.27;13.10;;;2.80;70.90;;;0.38;75.47;95486.09;5025647;28;20401;-71
2021/01/04 01:16:57;;;;;;;32.97;16.20;;;2.80;70.50;;;0.34;75.85;95482.97;4990943;28;20042;-71
2021/01/04 01:19:45;;;;;;;28.45;14.63;;;2.80;71.00;;;0.37;74.94;95490.44;4977504;28;20034;-71
2021/01/04 01:22:31;;;;;;;24.95;13.10;;;2.70;70.90;;;0.38;75.37;95492.09;4998426;28;20037;-71
2021/01/04 01:24:59;;;;;;;24.92;13.05;;;2.70;70.70;;;0.35;75.24;95497.53;4978258;28;20066;-70
2021/01/04 01:27:37;;;;;;;23.33;11.90;;;2.70;69.70;;;0.34;73.93;95501.09;4975621;28;20023;-71
2021/01/04 01:30:06;;;;;;;21.77;11.52;;;2.70;68.30;;;0.35;74.81;95499.31;4989579;28;20065;-71
2021/01/04 01:32:50;;;;;;;135.05;67.13;;;2.70;68.70;;;0.23;74.45;95483.97;4990108;28;20034;-72
2021/01/04 01:35:22;;;;;;;33.25;18.15;;;2.60;69.30;;;0.34;74.25;95495.91;4969636;28;20031;-71
2021/01/04 01:38:15;;;;;;;25.42;13.15;;;2.70;68.70;;;0.36;73.71;95499.16;4990683;28;20514;-71
2021/01/04 01:41:17;;;;;;;27.00;12.30;;;2.70;68.70;;;0.36;73.47;95501.75;4970811;28;20039;-71
2021/01/04 01:44:13;;;;;;;21.52;12.13;;;2.70;68.30;;;0.37;73.50;95495.63;4987056;28;20086;-71
2021/01/04 01:46:48;;;;;;;23.98;12.00;;;2.70;68.40;;;0.38;74.37;95489.50;4990568;28;20026;-70
2021/01/04 01:49:28;;;;;;;22.42;12.55;;;2.70;68.50;;;0.37;73.71;95494.81;4969721;28;20050;-71
2021/01/04 01:52:16;;;;;;;25.20;12.80;;;2.70;68.50;;;0.37;74.55;95503.38;4968896;28;20741;-71
2021/01/04 01:55:33;;;;;;;26.58;13.70;;;2.70;68.90;;;0.38;74.46;95486.91;4991200;28;20384;-71
2021/01/04 01:58:07;;;;;;;29.23;14.52;;;2.80;69.40;;;0.39;74.61;95498.06;4952398;28;20051;-71
2021/01/04 02:01:19;;;;;;;20.73;12.50;;;2.80;70.00;;;0.38;74.02;95501.63;4989951;28;20045;-71
2021/01/04 02:03:59;;;;;;;27.60;14.27;;;2.70;69.80;;;0.35;73.73;95501.91;5008951;28;20493;-72
2021/01/04 02:07:04;;;;;;;26.08;14.65;;;2.70;69.10;;;0.33;74.47;95499.47;5009510;28;20562;-72
2021/01/04 02:09:36;;;;;;;28.33;14.32;;;2.60;69.10;;;0.30;74.52;95504.91;4923912;29;20118;-71
2021/01/04 02:12:24;;;;;;;30.60;15.00;;;2.50;68.90;;;0.26;73.29;95501.81;4964177;28;20129;-70
2021/01/04 02:15:09;;;;;;;29.90;15.85;;;2.40;69.10;;;0.29;73.89;95503.28;4950860;28;20125;-71
2021/01/04 02:18:09;;;;;;;29.90;15.63;;;2.50;69.10;;;0.25;73.86;95496.78;4991032;28;20513;-71
2021/01/04 02:21:34;;;;;;;30.65;14.80;;;2.50;69.10;;;0.26;73.94;95498.41;4989137;28;20482;-71
2021/01/04 02:24:06;;;;;;;33.17;15.77;;;2.60;69.60;;;0.26;74.59;95503.56;4985150;28;20030;-71
2021/01/04 02:26:32;;;;;;;32.83;16.13;;;2.60;69.90;;;0.19;74.67;95489.53;4957242;28;20070;-72
2021/01/04 02:29:12;;;;;;;29.10;16.35;;;2.60;70.50;;;0.26;75.30;95503.56;4972535;28;20054;-71
2021/01/04 02:31:41;;;;;;;33.25;17.63;;;2.70;70.90;;;0.28;75.16;95506.84;4988735;28;20033;-71
2021/01/04 02:34:09;;;;;;;29.88;15.57;;;2.60;71.20;;;0.28;75.50;95496.47;4988309;28;20049;-71
2021/01/04 02:36:44;;;;;;;29.40;16.45;;;2.70;71.40;;;0.29;75.43;95492.94;4973104;28;20042;-70
2021/01/04 02:39:42;;;;;;;31.23;17.35;;;2.70;71.70;;;0.28;75.42;95488.72;4987765;28;20383;-71
2021/01/04 02:42:23;;;;;;;35.63;17.52;;;2.70;71.30;;;0.28;75.47;95501.66;4972050;28;20038;-73
2021/01/04 02:44:49;;;;;;;32.70;17.27;;;2.70;71.30;;;0.28;75.42;95496.47;4973252;28;20045;-71
2021/01/04 02:47:53;;;;;;;35.15;18.60;;;2.70;71.20;;;0.27;74.81;95500.03;4968173;28;20457;-71
2021/01/04 02:51:02;;;;;;;35.85;18.48;;;2.60;70.60;;;0.26;74.78;95498.41;4985202;28;20031;-72
2021/01/04 02:54:11;;;;;;;34.05;17.42;;;2.60;70.30;;;0.21;74.57;95487.63;4988955;28;20045;-71
2021/01/04 02:57:02;;;;;;;32.33;17.20;;;2.50;70.30;;;0.17;75.00;95488.88;4989061;28;20370;-71
2021/01/04 02:59:53;;;;;;;30.23;16.70;;;2.50;70.50;;;0.15;74.38;95491.59;4974230;28;20426;-71
2021/01/04 03:02:46;;;;;;;30.83;16.25;;;2.50;70.10;;;0.14;74.81;95484.00;4989375;28;20057;-71
2021/01/04 03:05:16;;;;;;;31.45;17.80;;;2.50;70.30;;;0.18;74.51;95490.50;4968330;28;20166;-71
2021/01/04 03:07:48;;;;;;;30.90;17.38;;;2.50;70.30;;;0.17;75.20;95494.03;4983018;28;20034;-71
2021/01/04 03:10:18;;;;;;;29.27;16.63;;;2.40;70.40;;;0.12;74.78;95491.06;4972783;28;20129;-71
2021/01/04 03:12:44;;;;;;;30.63;17.15;;;2.40;70.10;;;0.16;74.84;95497.59;4940960;28;20154;-71
2021/01/04 03:15:40;;;;;;;31.35;17.27;;;2.50;69.70;;;0.15;74.05;95496.78;4939291;28;20125;-72
2021/01/04 03:18:18;;;;;;;32.45;18.27;;;2.50;69.80;;;0.18;74.38;95500.84;4968537;28;20047;-71
2021/01/04 03:20:44;;;;;;;31.40;16.70;;;2.50;70.10;;;0.20;74.75;95504.09;4976588;28;20038;-71
2021/01/04 03:23:10;;;;;;;34.85;18.30;;;2.60;70.20;;;0.15;75.08;95494.19;4939084;28;20502;-71
2021/01/04 03:26:00;;;;;;;34.58;18.65;;;2.60;70.50;;;0.17;74.65;95500.03;4988296;28;20038;-72
2021/01/04 03:28:28;;;;;;;37.25;18.50;;;2.60;70.50;;;0.17;75.42;95501.81;4967513;28;20034;-71
2021/01/04 03:30:54;;;;;;;33.67;17.73;;;2.60;70.40;;;0.19;75.21;95510.25;4971676;28;20060;-71
2021/01/04 03:33:20;;;;;;;35.42;18.13;;;2.50;70.50;;;0.18;75.24;95503.44;4987374;28;20038;-71
2021/01/04 03:35:47;;;;;;;35.33;18.88;;;2.50;70.50;;;0.11;74.91;95492.03;4955506;28;20557;-71
2021/01/04 03:38:13;;;;;;;34.30;18.33;;;2.60;70.70;;;0.20;74.93;95506.69;4955547;28;20062;-71
2021/01/04 03:40:39;;;;;;;35.88;18.80;;;2.60;70.60;;;0.18;75.23;95500.84;4953583;28;20387;-71
2021/01/04 03:43:05;;;;;;;37.00;20.17;;;2.60;70.30;;;0.19;75.45;95502.47;4971178;28;20130;-71
2021/01/04 03:45:30;;;;;;;34.70;18.60;;;2.60;70.60;;;0.14;75.35;95496.91;4970818;28;20125;-71
2021/01/04 03:47:56;;;;;;;36.03;19.17;;;2.50;70.40;;;0.18;75.14;95506.03;4968006;28;20190;-71
2021/01/04 03:50:22;;;;;;;37.40;19.80;;;2.50;70.30;;;0.15;74.85;95504.53;4961648;28;20040;-71
2021/01/04 03:52:48;;;;;;;34.03;19.40;;;2.50;70.30;;;0.08;74.93;95492.31;4987461;28;20040;-71
2021/01/04 03:55:15;;;;;;;37.05;19.08;;;2.40;70.50;;;0.08;74.77;95493.13;4986722;28;20493;-70
2021/01/04 03:57:41;;;;;;;38.55;19.25;;;2.40;69.90;;;0.04;75.26;95491.78;4971704;28;20027;-69
2021/01/04 04:00:08;;;;;;;35.58;19.88;;;2.40;70.00;;;0.08;74.63;95500.06;4954920;28;20133;-70
2021/01/04 04:02:34;;;;;;;34.83;18.63;;;2.40;70.10;;;0.03;74.84;95492.72;4988729;28;20049;-70
2021/01/04 04:05:00;;;;;;;35.35;19.15;;;2.30;70.20;;;0.01;75.01;95492.06;4971096;28;20062;-70
2021/01/04 04:07:26;;;;;;;38.40;18.73;;;2.30;70.20;;;0.08;74.93;95500.06;4954766;28;20046;-70
2021/01/04 04:09:52;;;;;;;35.00;19.02;;;2.30;70.30;;;0.02;74.47;95490.28;4938950;28;20045;-72
2021/01/04 04:12:18;;;;;;;36.72;19.60;;;2.40;70.10;;;0.08;74.87;95502.66;4971544;28;20065;-71
2021/01/04 04:14:47;;;;;;;40.15;19.23;;;2.40;70.00;;;0.07;74.99;95493.28;4955235;28;20037;-70
2021/01/04 04:17:16;;;;;;;35.80;18.65;;;2.40;69.90;;;0.07;75.12;95493.28;4986912;28;20041;-70
2021/01/04 04:19:46;;;;;;;32.92;19.23;;;2.40;70.00;;;0.07;74.79;95495.84;4988728;28;20076;-70
2021/01/04 04:22:12;;;;;;;39.22;19.95;;;2.40;69.90;;;0.03;74.61;95491.91;4971418;28;20129;-70
2021/01/04 04:24:39;;;;;;;34.65;18.17;;;2.40;70.10;;;-0.02;74.42;95493.13;4986895;28;20117;-70
2021/01/04 04:27:06;;;;;;;34.75;19.05;;;2.20;69.20;;;-0.07;74.59;95492.72;4986639;28;20034;-71
2021/01/04 04:29:32;;;;;;;35.92;18.75;;;2.20;69.60;;;-0.03;74.56;95498.44;4954551;28;20177;-70
2021/01/04 04:31:58;;;;;;;35.67;18.55;;;2.20;69.60;;;-0.09;74.87;95481.72;4967907;28;20145;-70
2021/01/04 04:34:24;;;;;;;42.42;19.95;;;2.30;69.50;;;-0.05;74.91;95490.81;4948679;28;20557;-70
2021/01/04 04:36:49;;;;;;;39.58;19.58;;;2.30;69.80;;;-0.03;74.67;95499.25;4986658;28;20045;-70
2021/01/04 04:39:15;;;;;;;37.50;18.83;;;2.20;70.30;;;-0.10;74.52;95485.25;4970116;28;20108;-70
2021/01/04 04:41:46;;;;;;;37.00;19.60;;;2.30;70.30;;;-0.02;74.84;95500.88;4951812;28;20034;-70
2021/01/04 04:44:32;;;;;;;40.45;20.70;;;2.30;70.00;;;-0.08;74.43;95485.94;4966738;28;20454;-70
2021/01/04 04:47:48;;;;;;;35.15;19.08;;;2.30;70.40;;;-0.10;73.89;95490.44;4986404;28;20038;-70
2021/01/04 04:50:25;;;;;;;37.92;18.73;;;2.20;70.10;;;-0.05;74.56;95503.75;4986838;28;20351;-70
2021/01/04 04:53:09;;;;;;;37.03;19.33;;;2.20;70.30;;;-0.08;74.14;95501.44;4986574;28;20031;-70
2021/01/04 04:56:12;;;;;;;34.17;18.63;;;2.10;70.20;;;-0.11;74.37;95504.31;4988317;28;20392;-70
2021/01/04 04:59:48;;;;;;;36.50;19.17;;;2.10;70.80;;;-0.10;74.54;95502.53;4971358;28;20108;-70
2021/01/04 05:03:00;;;;;;;33.88;18.17;;;2.20;70.60;;;-0.17;74.38;95486.78;4970284;28;20042;-70
2021/01/04 05:05:43;;;;;;;35.75;19.23;;;2.20;70.90;;;-0.11;74.94;95496.56;4969880;28;20043;-70
2021/01/04 05:08:45;;;;;;;36.65;18.75;;;2.20;70.70;;;-0.10;74.37;95493.00;4989862;28;20038;-70
2021/01/04 05:11:10;;;;;;;;;;;2.20;70.60;;;-0.12;74.34;95494.09;4976172;28;20054;-71
2021/01/04 05:13:42;;;;;;;31.60;16.38;;;2.20;70.60;;;-0.10;74.77;95498.19;4974633;28;19963;-70
2021/01/04 05:16:30;;;;;;;;;;;2.20;70.80;;;-0.15;74.99;95492.63;4971555;28;20538;-70
2021/01/04 05:19:04;;;;;;;32.28;17.50;;;2.20;70.80;;;-0.12;74.65;95505.25;4980497;28;19913;-70
2021/01/04 05:22:14;;;;;;;33.72;17.35;;;2.20;70.50;;;-0.13;74.13;95498.47;4991333;28;20042;-70
2021/01/04 05:25:15;;;;;;;34.42;18.00;;;2.10;70.20;;;-0.15;74.16;95499.56;4990034;28;20038;-70
2021/01/04 05:27:52;;;;;;;36.23;17.50;;;2.10;70.40;;;-0.15;74.43;95499.56;4974901;28;20038;-69
2021/01/04 05:30:36;;;;;;;32.55;18.60;;;2.20;70.40;;;-0.15;73.81;95510.72;5014025;28;20093;-70
2021/01/04 05:33:16;;;;;;;34.63;18.48;;;2.10;69.80;;;-0.19;74.42;95509.38;4994423;28;20140;-70
2021/01/04 05:35:43;;;;;;;32.50;17.00;;;2.00;69.80;;;-0.24;74.40;95505.53;5010395;28;20037;-70
2021/01/04 05:38:48;;;;;;;31.67;16.50;;;2.00;69.50;;;-0.20;74.29;95518.06;4990163;28;20069;-70
2021/01/04 05:41:36;;;;;;;28.40;16.35;;;2.10;70.00;;;-0.21;74.67;95511.28;4978499;28;20034;-70
2021/01/04 05:44:41;;;;;;;29.02;16.80;;;2.00;69.70;;;-0.24;74.38;95503.75;4995021;28;20041;-69
2021/01/04 05:47:19;;;;;;;31.23;16.67;;;2.10;70.30;;;-0.24;74.27;95511.53;5010255;28;20042;-70
2021/01/04 05:49:50;;;;;;;30.80;16.48;;;2.10;70.40;;;-0.29;74.49;95498.19;5010121;28;20042;-70
2021/01/04 05:52:16;;;;;;;35.70;18.83;;;2.10;70.40;;;-0.22;74.72;95512.22;4993143;28;20045;-70
2021/01/04 05:54:42;;;;;;;32.55;15.70;;;2.10;70.50;;;-0.24;74.92;95506.34;5009319;28;20045;-70
2021/01/04 05:57:16;;;;;;;32.00;17.27;;;2.10;70.30;;;-0.21;74.54;95497.53;5008608;28;20045;-70
2021/01/04 05:59:57;;;;;;;30.77;16.73;;;2.20;70.30;;;-0.22;74.65;95490.75;4992097;28;20057;-70
2021/01/04 06:02:34;;;;;;;33.78;18.48;;;2.10;70.50;;;-0.20;74.95;95492.22;5009938;28;20037;-70
2021/01/04 06:05:11;;;;;;;31.52;17.35;;;2.20;70.90;;;-0.19;74.71;95493.84;4993061;28;20078;-72
2021/01/04 06:07:39;;;;;;;28.05;16.65;;;2.20;70.90;;;-0.19;74.30;95499.03;4988801;28;20092;-70
2021/01/04 06:10:07;;;;;;;30.02;16.75;;;2.10;70.40;;;-0.19;74.66;95491.28;4995667;28;20046;-70
2021/01/04 06:12:40;;;;;;;29.67;16.95;;;2.10;69.90;;;-0.19;74.11;95503.38;4975726;28;20741;-71
2021/01/04 06:15:08;;;;;;;31.77;17.77;;;2.20;69.80;;;-0.19;74.52;95491.28;5008179;28;20050;-70
2021/01/04 06:17:37;;;;;;;31.98;16.77;;;2.10;70.20;;;-0.21;74.70;95493.19;4987455;28;20034;-70
2021/01/04 06:20:45;;;;;;;31.58;17.08;;;2.20;70.10;;;-0.19;74.36;95495.63;4981998;28;20355;-71
2021/01/04 06:23:18;;;;;;;33.85;18.02;;;2.10;70.30;;;-0.21;74.52;95507.88;4987270;28;20042;-70
2021/01/04 06:25:44;;;;;;;34.00;17.85;;;2.00;70.10;;;-0.23;74.80;95497.66;4968017;28;20038;-67
2021/01/04 06:28:10;;;;;;;32.95;16.75;;;2.00;69.90;;;-0.26;74.54;95508.25;5003970;28;20065;-66
2021/01/04 06:30:38;;;;;;;29.75;17.05;;;2.00;70.00;;;-0.33;74.63;95497.66;4978960;28;20042;-68
2021/01/04 06:33:09;;;;;;;30.75;15.98;;;2.00;69.90;;;-0.27;74.01;95510.97;4988216;28;20045;-67
2021/01/04 06:35:35;;;;;;;;;;;2.10;69.70;;;-0.27;74.13;95508.41;4990997;28;20034;-70
2021/01/04 06:38:22;;;;;;;29.60;15.98;;;2.10;69.80;;;-0.36;74.34;95495.34;4987835;28;20296;-69
2021/01/04 06:40:47;;;;;;;30.02;16.48;;;2.00;70.40;;;-0.28;74.50;95504.19;4989392;28;20054;-70
2021/01/04 06:43:33;;;;;;;34.58;17.27;;;2.10;70.50;;;-0.27;74.71;95506.63;4975613;28;20038;-70
2021/01/04 06:46:30;;;;;;;30.20;16.55;;;2.10;70.90;;;-0.29;74.78;95494.81;4990585;28;20026;-70
2021/01/04 06:49:18;;;;;;;32.53;16.55;;;2.10;71.00;;;-0.23;74.78;95507.16;4979404;28;20109;-70
2021/01/04 06:52:41;;;;;;;30.38;16.55;;;2.10;70.50;;;-0.28;74.07;95502.41;4970948;28;20519;-69
2021/01/04 06:55:28;;;;;;;30.77;16.15;;;2.00;69.90;;;-0.31;74.32;95511.25;5021993;28;20041;-71
2021/01/04 06:58:28;;;;;;;29.95;16.75;;;1.90;70.20;;;-0.42;73.86;95497.69;5026146;28;20309;-70
2021/01/04 07:01:15;;;;;;;35.80;19.50;;;1.90;70.00;;;-0.34;74.24;95511.53;5005424;28;20121;-70
2021/01/04 07:04:09;;;;;;;36.25;20.70;;;1.90;70.30;;;-0.34;73.96;95510.72;4989175;28;20035;-70
2021/01/04 07:07:27;;;;;;;28.60;16.55;;;1.90;69.80;;;-0.32;73.93;95513.97;5006559;28;20061;-70
2021/01/04 07:10:28;;;;;;;27.52;15.68;;;2.00;69.90;;;-0.31;74.05;95505.28;5002555;28;20447;-70
2021/01/04 07:13:26;;;;;;;28.90;15.57;;;2.10;69.80;;;-0.31;74.26;95513.84;5006666;28;20490;-70
2021/01/04 07:16:15;;;;;;;22.38;13.05;;;2.00;70.10;;;-0.34;73.57;95515.88;4976261;28;20057;-70
2021/01/04 07:19:11;;;;;;;22.33;12.93;;;1.90;69.30;;;-0.35;73.77;95520.25;5006254;28;20042;-70
2021/01/04 07:22:06;;;;;;;26.35;14.82;;;1.90;69.20;;;-0.32;73.91;95522.56;4991803;28;20076;-70
2021/01/04 07:24:47;;;;;;;25.08;13.27;;;2.00;69.60;;;-0.37;74.21;95519.56;4989939;28;20038;-71
2021/01/04 07:27:39;;;;;;;25.07;13.10;;;2.00;69.50;;;-0.28;73.96;95533.41;4972202;28;20064;-71
2021/01/04 07:30:18;;;;;;;23.40;13.38;;;2.00;69.80;;;-0.27;73.52;95536.81;4999996;28;20800;-70
2021/01/04 07:33:00;;;;;;;27.98;13.90;;;2.10;69.60;;;-0.29;74.13;95542.13;4987852;28;20518;-67
2021/01/04 07:35:32;;;;;;;25.27;14.45;;;2.10;69.40;;;-0.28;74.13;95542.94;4985620;28;20050;-67
2021/01/04 07:38:27;;;;;;;26.23;15.13;;;2.10;69.50;;;-0.28;74.38;95546.34;4987535;28;20495;-67
2021/01/04 07:41:04;;;;;;;22.35;13.13;;;2.10;70.10;;;-0.32;74.16;95548.38;4961986;28;20074;-66
2021/01/04 07:44:16;;;;;;;25.48;13.05;;;1.90;69.50;;;-0.31;73.73;95551.78;4987704;28;20046;-66
2021/01/04 07:47:31;;;;;;;20.63;12.35;;;2.00;69.30;;;-0.29;73.51;95554.22;4982260;28;20038;-69
2021/01/04 07:50:27;;;;;;;24.58;13.35;;;2.10;69.30;;;-0.29;72.69;95544.72;4987353;28;20058;-67
2021/01/04 07:53:20;;;;;;;25.13;14.00;;;2.00;68.40;;;-0.32;73.10;95545.00;4967143;28;20047;-69
2021/01/04 07:56:24;;;;;;;24.90;13.65;;;2.00;68.90;;;-0.33;73.53;95543.34;4978701;28;20034;-69
2021/01/04 07:59:33;;;;;;;28.40;14.70;;;2.00;69.10;;;-0.34;73.91;95544.31;4977569;28;20068;-68
2021/01/04 08:02:53;;;;;;;26.40;14.32;;;2.00;69.20;;;-0.32;73.95;95545.00;4992913;28;20030;-69
2021/01/04 08:05:50;;;;;;;29.48;16.13;;;2.00;69.40;;;-0.30;74.10;95550.84;4997147;28;20048;-68
2021/01/04 08:08:47;;;;;;;33.40;18.02;;;2.10;69.90;;;-0.31;75.19;95544.84;5004357;28;20568;-70
2021/01/04 08:11:43;;;;;;;34.05;19.20;;;2.10;71.20;;;-0.29;75.55;95542.13;4974694;28;20490;-70
2021/01/04 08:14:40;;;;;;;23.35;14.50;;;2.10;71.40;;;-0.28;74.51;95546.34;5007007;28;20050;-70
2021/01/04 08:17:28;;;;;;;30.67;17.10;;;2.10;70.10;;;-0.25;74.55;95540.09;4985745;28;20402;-67
2021/01/04 08:19:55;;;;;;;25.88;14.73;;;2.20;70.60;;;-0.22;74.24;95543.25;5005554;28;20129;-69
2021/01/04 08:22:50;;;;;;;35.40;19.52;;;2.20;69.00;;;-0.18;74.19;95546.34;4972252;28;20387;-68
2021/01/04 08:25:46;;;;;;;36.28;19.63;;;2.20;69.40;;;-0.14;74.41;95553.69;4972500;28;20473;-70
2021/01/04 08:28:43;;;;;;;41.45;22.92;;;2.30;69.60;;;-0.12;74.75;95551.78;4982772;28;20046;-70
2021/01/04 08:31:43;;;;;;;33.20;17.27;;;2.30;69.70;;;-0.12;74.20;95545.81;4999470;28;20044;-67
2021/01/04 08:34:19;;;;;;;24.42;15.05;;;2.30;69.30;;;-0.18;74.06;95536.84;4999216;28;20066;-66
2021/01/04 08:36:44;;;;;;;26.75;14.13;;;2.30;69.20;;;-0.12;74.26;95550.97;4971649;28;20030;-66
2021/01/04 08:39:22;;;;;;;36.88;16.77;;;2.20;69.10;;;-0.14;73.13;95548.53;4987065;28;20454;-67
2021/01/04 08:42:05;;;;;;;56.72;30.08;;;2.20;68.20;;;-0.11;73.54;95550.84;4989192;28;20482;-66
2021/01/04 08:44:32;;;;;;;34.00;18.10;;;2.20;68.70;;;-0.11;73.92;95550.03;4990222;28;20041;-66
2021/01/04 08:47:17;;;;;;;29.95;15.32;;;2.20;68.60;;;-0.08;73.68;95562.66;5005988;28;20026;-70
2021/01/04 08:49:46;;;;;;;30.67;15.75;;;2.30;68.70;;;-0.16;73.56;95553.03;4990902;28;20038;-68
2021/01/04 08:52:18;;;;;;;30.25;15.38;;;2.10;67.60;;;-0.12;73.68;95562.13;4989765;28;20100;-69
2021/01/04 08:54:44;;;;;;;30.17;16.45;;;2.20;68.00;;;-0.12;73.71;95567.31;4971689;28;20125;-68
2021/01/04 08:57:15;;;;;;;29.25;15.45;;;2.20;68.10;;;-0.13;73.32;95563.09;4954375;28;20065;-69
2021/01/04 09:00:00;;;;;;;31.63;16.45;;;2.30;68.40;;;-0.14;72.81;95560.63;4970614;28;20039;-68
2021/01/04 09:02:38;;;;;;;28.35;14.63;;;2.20;67.80;;;-0.20;72.72;95559.41;4970443;28;20051;-69
2021/01/04 09:05:07;;;;;;;32.28;15.40;;;2.20;67.80;;;-0.17;72.86;95553.97;4970141;28;20373;-69
2021/01/04 09:07:33;;;;;;;30.55;16.50;;;2.10;68.00;;;-0.24;73.73;95547.69;4975206;28;20042;-66
2021/01/04 09:10:03;;;;;;;37.90;18.48;;;2.00;68.50;;;-0.28;74.04;95548.13;4973351;28;20461;-65
2021/01/04 09:12:39;;;;;;;41.47;20.02;;;2.00;68.90;;;-0.24;73.59;95563.19;4973791;28;20039;-66
2021/01/04 09:15:33;;;;;;;52.40;28.90;;;2.00;69.30;;;-0.24;73.39;95568.38;4957947;28;20042;-66
2021/01/04 09:18:01;;;;;;;39.33;20.02;;;2.00;69.20;;;-0.24;73.88;95565.78;4956363;28;20043;-69
2021/01/04 09:20:59;;;;;;;42.17;20.40;;;2.00;69.50;;;-0.31;74.21;95546.63;4989212;28;20037;-71
2021/01/04 09:23:29;;;;;;;38.47;19.02;;;2.10;69.90;;;-0.22;74.15;95566.50;4985546;28;20452;-69
2021/01/04 09:26:01;;;;;;;35.78;17.83;;;2.10;70.00;;;-0.18;73.95;95562.69;4990909;28;20030;-67
2021/01/04 09:28:38;;;;;;;34.33;17.30;;;2.10;69.90;;;-0.16;73.81;95573.69;5005137;28;20038;-67
2021/01/04 09:31:04;;;;;;;42.13;17.95;;;2.10;69.80;;;-0.19;74.22;95568.81;4974526;28;20061;-66
2021/01/04 09:33:30;;;;;;;37.70;17.90;;;2.10;69.80;;;-0.22;74.07;95551.00;4973224;28;20070;-69
2021/01/04 09:36:04;;;;;;;36.22;18.73;;;2.20;69.90;;;-0.11;74.38;95553.41;4956961;28;20110;-68
2021/01/04 09:38:30;;;;;;;37.25;17.33;;;2.20;70.20;;;-0.11;74.35;95553.41;4956148;28;20030;-69
2021/01/04 09:41:02;;;;;;;42.60;18.75;;;2.20;70.10;;;-0.09;74.00;95550.69;4953364;28;20631;-69
2021/01/04 09:43:30;;;;;;;36.97;17.98;;;2.20;70.20;;;-0.11;74.30;95548.25;4948789;28;20107;-70
2021/01/04 09:46:26;;;;;;;36.83;18.92;;;2.10;69.50;;;-0.09;73.60;95548.94;5004400;28;20084;-72
2021/01/04 09:48:59;;;;;;;40.58;17.83;;;2.20;69.50;;;-0.09;73.62;95546.34;4952913;28;20039;-69
2021/01/04 09:51:37;;;;;;;37.40;17.50;;;2.20;69.50;;;-0.03;74.13;95550.97;4999535;28;20045;-70
2021/01/04 09:54:05;;;;;;;40.63;19.02;;;2.30;70.10;;;-0.10;73.97;95539.53;4976971;28;20036;-68
2021/01/04 09:56:38;;;;;;;41.13;18.73;;;2.20;70.30;;;-0.10;73.93;95552.47;4976970;28;20030;-70
2021/01/04 09:59:24;;;;;;;38.80;19.08;;;2.20;70.50;;;-0.13;74.02;95545.00;4961511;28;20132;-69
2021/01/04 10:02:01;;;;;;;39.85;18.27;;;2.20;70.30;;;-0.09;74.31;95546.34;5002012;28;20524;-69
2021/01/04 10:04:37;;;;;;;41.08;18.92;;;2.20;70.30;;;-0.08;74.04;95540.22;4987751;28;20115;-70
2021/01/04 10:07:04;;;;;;;35.38;17.60;;;2.30;70.00;;;-0.01;74.38;95549.03;4956323;28;20041;-68
2021/01/04 10:09:33;;;;;;;38.22;18.83;;;2.30;70.40;;;-0.01;74.59;95543.06;4965660;28;20038;-69
2021/01/04 10:12:04;;;;;;;39.05;18.27;;;2.30;69.90;;;-0.02;74.44;95534.50;4988344;28;20039;-70
2021/01/04 10:14:30;;;;;;;39.47;19.58;;;2.30;69.70;;;0.01;74.51;95541.19;4961912;28;20026;-71
2021/01/04 10:16:56;;;;;;;37.70;18.55;;;2.40;70.00;;;-0.03;74.42;95527.69;5006863;28;20069;-70
2021/01/04 10:19:28;;;;;;;35.83;18.20;;;2.40;69.50;;;-0.02;73.57;95542.25;4973553;28;20042;-68
2021/01/04 10:22:15;;;;;;;39.40;18.30;;;2.20;69.00;;;-0.10;73.18;95524.03;5007177;28;20026;-67
2021/01/04 10:24:58;;;;;;;35.33;17.98;;;2.20;69.10;;;-0.07;73.63;95533.28;4977572;28;20033;-70
2021/01/04 10:27:26;;;;;;;38.40;19.15;;;2.30;69.20;;;0.00;73.82;95539.56;4972497;28;20302;-70
2021/01/04 10:29:53;;;;;;;37.28;18.30;;;2.30;69.10;;;-0.01;73.92;95527.56;4988125;28;20125;-69
2021/01/04 10:32:38;;;;;;;36.88;18.67;;;2.30;68.90;;;-0.03;73.26;95540.63;4983680;28;20332;-70
2021/01/04 10:35:04;;;;;;;36.88;19.13;;;2.30;68.70;;;-0.09;74.19;95517.91;5004215;28;20038;-67
2021/01/04 10:37:36;;;;;;;39.15;18.15;;;2.30;68.80;;;-0.05;73.66;95524.44;4988595;28;20108;-66
2021/01/04 10:40:07;;;;;;;;;;;2.30;68.80;;;-0.12;73.45;95510.44;5007473;28;20038;-67
2021/01/04 10:42:33;;;;;;;46.85;22.63;;;2.30;68.90;;;-0.05;74.25;95514.09;5007130;28;19967;-67
2021/01/04 10:45:09;;;;;;;41.72;21.88;;;2.30;69.00;;;-0.04;73.51;95507.16;4980056;28;20041;-67
2021/01/04 10:47:58;;;;;;;41.30;21.50;;;2.30;69.10;;;-0.01;73.47;95514.63;5007374;28;20069;-67
2021/01/04 10:50:47;;;;;;;37.13;18.42;;;2.30;69.30;;;-0.02;74.06;95500.88;4992061;28;20121;-66
2021/01/04 10:53:37;;;;;;;38.70;19.33;;;2.30;69.50;;;-0.02;73.63;95494.91;4956881;28;20436;-68
2021/01/04 10:56:09;;;;;;;37.57;19.53;;;2.30;69.30;;;0.01;73.72;95493.84;5005559;28;20038;-67
2021/01/04 10:59:07;;;;;;;39.13;19.58;;;2.30;69.20;;;-0.06;73.22;95478.03;5008641;28;20444;-69
2021/01/04 11:01:36;;;;;;;39.35;20.17;;;2.40;68.60;;;0.02;73.95;95487.69;4975724;28;20044;-73
2021/01/04 11:04:10;;;;;;;37.85;19.70;;;2.40;68.40;;;0.01;73.56;95489.47;4990676;28;20037;-70
2021/01/04 11:06:40;;;;;;;39.50;20.00;;;2.40;68.50;;;0.02;73.46;95496.28;4991125;28;20022;-68
2021/01/04 11:09:15;;;;;;;43.17;20.88;;;2.30;68.50;;;0.02;73.42;95482.53;5006982;28;20029;-68
2021/01/04 11:11:45;;;;;;;37.90;19.92;;;2.30;68.90;;;0.01;73.69;95483.50;5013986;28;20037;-69
2021/01/04 11:14:22;;;;;;;40.35;20.50;;;2.40;69.10;;;-0.04;73.27;95471.78;4990860;28;20049;-71